Vancouver, WA

5:30 AM PDT on August 28, 2014 (GMT -0700)
Columbia Tech Center | Change Station
CLOSE
Current Station
Personal Weather Station
Location: Vancouver, WA
Elevation: 276 ft
Nearby Weather Stations

Elev 276 ft 45.62 °N, 122.48 °W | Updated 38 seconds ago

Partly Cloudy
Partly Cloudy
58.8 °F
Feels Like 58.8 °F
N
6.0
Wind Variable Wind from NW
Gusts 10.0 mph

Today
High -- | Low -- °F
--% Chance of Precip.
Yesterday
High -- | Low -- °F
Precip. -- in
6:26 AM 7:55 PM
Waxing Crescent, 8% visible
Pressure 30.09 in
Visibility 10.0 miles
Clouds Few 1200 ft
Dew Point 56 °F
Humidity 90%
Rainfall 0.00 in
Snow Depth Not available.
UV 0 out of 12
Pollen 3.80 out of 12
Air Quality Not available.
Flu Activity Not available.
METAR KPDX 281153Z 32004KT 10SM FEW012 16/14 A3009 RMK AO2 SLP187 T01610139 10217 20161 51013

More Conditions Fewer Conditions

Pressure 30.09 in
Visibility 10.0 miles
Clouds Few 1200 ft
Dew Point 56 °F
Humidity 90%
Rainfall 0.00 in
Snow Depth Not available.
UV 0 out of 12
Pollen 3.80 out of 12
Air Quality Not available.
Flu Activity Not available.
METAR KPDX 281153Z 32004KT 10SM FEW012 16/14 A3009 RMK AO2 SLP187 T01610139 10217 20161 51013

More Conditions Fewer Conditions

10-Day Weather Forecast

Almanac

Astronomy

Aug. 28, 2014 Rise Set
Actual Time 6:26 AM PDT 7:55 PM PDT
Civil Twilight 5:55 AM PDT 8:25 PM PDT
Nautical Twilight 5:17 AM PDT 9:03 PM PDT
Astronomical Twilight 4:37 AM PDT 9:43 PM PDT
Moon 9:35 AM PDT 9:09 PM PDT
Length of Visible Light 14h 30m
Length of Day
13h 28m
Tomorrow will be 3m 4s shorter.
Waxing Crescent, 8% of the Moon is Illuminated
Today
Waxing Crescent
Sep 2
First Quarter
Sep 8
Full
Sep 15
Last Quarter
Sep 24
New

Today's Extremes

State Highs State Lows

Community

WunderPhotos

Upload Photos

1,747,943 photos uploaded!

Nearby

Snow Depth

Station Depth Elevation
June Lake 0 in 3340 ft
Sheep Canyon 0 in 4030 ft
Swift Creek 0 in 3770 ft
Spencer Meadow 0 in 3400 ft
Surprise Lakes 0 in 4250 ft

Earthquake Activity

City Distance Mag. Time & Date
No recent earthquake activity has been reported nearby.
Minimum magnitude displayed is 2.5.

Coastal Water Temperatures

Place Temperature
No Stations Reporting

Nearby Weather Stations